Latest Coastal Weather Observations for Point Perpendicular

IDN60701

Issued at 8:21 am EDT Wednesday 22 November 2017 (issued every 10 minutes, with the page automatically refreshed every 10 minutes)

About coastal observations | Map of coastal stations | Coastal observations for NSW | Marine services | Other Formats
Station Details ID: 068151 Name: POINT PERPENDICULAR AWS Lat: -35.09 Lon: 150.80 Height: 85.0 m
Data from the previous 72 hours. | See also: Recent months at Point Perpendicular
Date/Time
EDT
Temp
°C
Wind Pressure Rain since
9am
mm
Weather Cloud Vis
km
Sea
Height
m
Swell
Dir  Spd
kts
Gust
kts
hPa Trend Height
m
Period
s
Dir
22/08:00am 17.8 SSW 4 6 1021.7 - 0.0 - - - - - - -
22/07:30am 16.8 SSW 3 6 1021.5 - 0.0 - - - - - - -
22/07:00am 17.0 WSW 3 4 1021.3 - 0.0 - - - - - - -
22/06:30am 16.9 WSW 2 4 1021.2 - 0.0 - - - - - - -
22/06:00am 16.7 SW 1 1 1021.1 - 0.0 - - - - - - -
22/05:30am 16.4 SSW 1 2 1021.0 - 0.0 - - - - - - -
22/05:00am 16.5 SSE 3 4 1020.8 - 0.0 - - - - - - -
22/04:30am 16.7 SSE 2 3 1020.8 - 0.0 - - - - - - -
22/04:00am 16.5 ESE 2 2 1020.8 - 0.0 - - - - - - -
22/03:30am 15.9 ENE 2 2 1021.0 - 0.0 - - - - - - -
22/03:00am 16.3 NE 3 4 1021.1 - 0.0 - - - - - - -
22/02:30am 16.3 NE 3 4 1021.2 - 0.0 - - - - - - -
22/02:00am 16.8 NE 4 4 1021.4 - 0.0 - - - - - - -
22/01:30am 16.6 NE 4 4 1021.7 - 0.0 - - - - - - -
22/01:00am 16.8 NE 4 4 1021.9 - 0.0 - - - - - - -
22/12:30am 16.7 NNE 5 5 1022.2 - 0.0 - - - - - - -
22/12:00am 16.7 NNE 4 4 1022.5 - 0.0 - - - - - - -
 
Date/Time
EDT
Temp
°C
Wind Pressure Rain since
9am
mm
Weather Cloud Vis
km
Sea
Height
m
Swell
Dir  Spd
kts
Gust
kts
hPa Trend Height
m
Period
s
Dir
21/11:30pm 16.7 NNE 5 6 1022.7 - 0.0 - - - - - - -
21/11:00pm 16.6 NE 6 6 1022.9 - 0.0 - - - - - - -
21/10:30pm 16.7 NE 5 6 1023.2 - 0.0 - - - - - - -
21/10:00pm 16.9 NE 5 6 1023.3 - 0.0 - - - - - - -
21/09:30pm 17.0 NE 5 6 1023.3 - 0.0 - - - - - - -
21/09:00pm 17.4 NE 5 7 1023.2 - 0.0 - - - - - - -
21/08:30pm 17.4 ENE 5 7 1023.0 - 0.0 - - - - - - -
21/08:00pm 17.5 ENE 5 6 1023.0 - 0.0 - - - - - - -
21/07:30pm 17.7 ENE 5 7 1022.9 - 0.0 - - - - - - -
21/07:00pm 18.5 ENE 6 9 1022.7 - 0.0 - - - - - - -
21/06:30pm 18.7 ENE 8 11 1022.6 - 0.0 - - - - - - -
21/06:00pm 19.3 ENE 8 11 1022.6 - 0.0 - - - - - - -
21/05:30pm 20.1 ENE 8 11 1022.6 - 0.0 - - - - - - -
21/05:00pm 20.1 ENE 9 13 1022.7 - 0.0 - - - - - - -
21/04:30pm 20.2 ENE 9 13 1022.7 - 0.0 - - - - - - -
21/04:00pm 20.4 ENE 9 12 1022.8 - 0.0 - - - - - - -
21/03:30pm 20.6 E 9 14 1023.0 - 0.0 - - - - - - -
21/03:00pm 20.9 E 8 12 1023.2 - 0.0 - - - - - - -
21/02:30pm 21.4 ENE 8 12 1023.6 - 0.0 - - - - - - -
21/02:00pm 20.2 NE 9 12 1024.1 - 0.0 - - - - - - -
21/01:30pm 20.6 ENE 7 11 1024.4 - 0.0 - - - - - - -
21/01:00pm 20.0 ENE 7 11 1024.8 - 0.0 - - - - - - -
21/12:30pm 20.9 NE 5 9 1025.1 - 0.0 - - - - - - -
21/12:00pm 21.6 NNE 5 10 1025.4 - 0.0 - - - - - - -
21/11:30am 19.9 NE 4 7 1025.6 - 0.0 - - - - - - -
21/11:00am 20.0 NE 4 8 1025.7 - 0.0 - - - - - - -
21/10:30am 20.3 ESE 5 9 1025.6 - 0.0 - - - - - - -
21/10:00am 20.9 SE 5 8 1025.6 - 0.0 - - - - - - -
21/09:30am 19.0 E 2 5 1025.6 - 0.0 - - - - - - -
21/09:00am 19.2 NE 3 5 1025.6 - 0.0 - - - - - - -
21/08:30am 18.5 NNE 3 5 1025.6 - 0.0 - - - - - - -
21/08:00am 18.7 CALM 0 2 1025.4 - 0.0 - - - - - - -
21/07:30am 18.2 ESE 1 2 1025.1 - 0.0 - - - - - - -
21/07:00am 17.7 SE 3 4 1025.0 - 0.0 - - - - - - -
21/06:30am 17.5 SE 2 2 1024.9 - 0.0 - - - - - - -
21/06:00am 17.4 E 2 2 1024.7 - 0.0 - - - - - - -
21/05:30am 16.9 ENE 3 5 1024.6 - 0.0 - - - - - - -
21/05:00am 17.2 ENE 4 6 1024.4 - 0.0 - - - - - - -
21/04:30am 17.5 ENE 6 8 1024.2 - 0.0 - - - - - - -
21/04:00am 17.0 ENE 5 7 1024.2 - 0.0 - - - - - - -
21/03:30am 17.2 E 4 6 1024.3 - 0.0 - - - - - - -
21/03:00am 17.2 E 4 6 1024.4 - 0.0 - - - - - - -
21/02:30am 17.3 E 5 7 1024.5 - 0.0 - - - - - - -
21/02:00am 17.4 E 5 6 1024.6 - 0.0 - - - - - - -
21/01:30am 17.7 ENE 4 6 1024.8 - 0.0 - - - - - - -
21/01:00am 17.5 ENE 4 7 1025.1 - 0.0 - - - - - - -
21/12:30am 17.6 ESE 3 5 1025.3 - 0.0 - - - - - - -
21/12:00am 17.8 ENE 2 3 1025.6 - 0.0 - - - - - - -
 
Date/Time
EDT
Temp
°C
Wind Pressure Rain since
9am
mm
Weather Cloud Vis
km
Sea
Height
m
Swell
Dir  Spd
kts
Gust
kts
hPa Trend Height
m
Period
s
Dir
20/11:30pm 17.4 NE 2 2 1025.6 - 0.0 - - - - - - -
20/11:00pm 17.3 NNE 2 5 1025.7 - 0.0 - - - - - - -
20/10:30pm 17.2 NE 3 4 1025.8 - 0.0 - - - - - - -
20/10:00pm 17.7 ENE 3 4 1025.9 - 0.0 - - - - - - -
20/09:30pm 17.3 ENE 4 5 1025.9 - 0.0 - - - - - - -
20/09:00pm 17.4 ENE 4 5 1025.7 - 0.0 - - - - - - -
20/08:30pm 17.4 ENE 3 4 1025.4 - 0.0 - - - - - - -
20/08:00pm 17.6 E 3 5 1025.3 - 0.0 - - - - - - -
20/07:30pm 18.3 ENE 4 6 1025.1 - 0.0 - - - - - - -
20/07:00pm 19.0 ENE 4 6 1025.2 - 0.0 - - - - - - -
20/06:30pm 19.7 ENE 7 10 1024.9 - 0.0 - - - - - - -
20/06:00pm 19.6 ENE 8 11 1024.9 - 0.0 - - - - - - -
20/05:30pm 20.7 ENE 7 10 1024.8 - 0.0 - - - - - - -
20/05:00pm 20.6 E 7 12 1024.9 - 0.0 - - - - - - -
20/04:30pm 20.4 ESE 9 11 1024.8 - 0.0 - - - - - - -
20/04:00pm 20.6 ESE 9 13 1024.9 - 0.0 - - - - - - -
20/03:30pm 20.6 ESE 10 13 1025.2 - 0.0 - - - - - - -
20/03:00pm 21.2 E 8 11 1025.4 - 0.0 - - - - - - -
20/02:30pm 21.2 E 7 11 1025.5 - 0.0 - - - - - - -
20/02:00pm 21.5 ESE 8 10 1025.8 - 0.0 - - - - - - -
20/01:30pm 21.3 ESE 7 10 1025.9 - 0.0 - - - - - - -
20/01:00pm 21.4 ESE 8 12 1026.3 - 0.0 - - - - - - -
20/12:30pm 20.5 ESE 8 10 1026.5 - 0.0 - - - - - - -
20/12:00pm 21.7 SE 5 9 1026.5 - 0.0 - - - - - - -
20/11:30am 21.8 SE 5 8 1026.5 - 0.0 - - - - - - -
20/11:00am 21.8 S 6 9 1026.7 - 0.0 - - - - - - -
20/10:30am 20.3 S 6 9 1026.6 - 0.0 - - - - - - -
20/10:00am 20.2 S 5 8 1026.5 - 0.0 - - - - - - -
20/09:30am 20.1 S 4 6 1026.5 - 0.0 - - - - - - -
20/09:00am 19.4 SSE 4 8 1026.4 - 1.4 - - - - - - -
20/08:30am 18.7 SSW 4 6 1026.3 - 1.4 - - - - - - -
20/08:00am 18.0 S 4 7 1026.0 - 1.4 - - - - - - -
20/07:30am 18.0 SSW 4 7 1025.7 - 1.4 - - - - - - -
20/07:00am 18.0 S 4 6 1025.4 - 1.4 - - - - - - -
20/06:30am 17.4 S 4 5 1025.2 - 1.4 - - - - - - -
20/06:00am 17.0 S 5 6 1025.2 - 1.4 - - - - - - -
20/05:30am 17.0 SSW 2 4 1024.9 - 1.4 - - - - - - -
20/05:00am 17.1 SSW 2 3 1024.7 - 1.4 - - - - - - -
20/04:30am 17.0 CALM 0 1 1024.7 - 1.4 - - - - - - -
20/04:00am 17.1 WSW 1 2 1024.7 - 1.4 - - - - - - -
20/03:30am 16.9 WSW 1 2 1024.5 - 1.4 - - - - - - -
20/03:00am 17.0 E 2 3 1024.5 - 1.4 - - - - - - -
20/02:30am 16.8 E 3 5 1024.5 - 1.4 - - - - - - -
20/02:00am 16.5 ENE 2 3 1024.7 - 1.4 - - - - - - -
20/01:30am 16.9 ENE 3 4 1024.7 - 1.4 - - - - - - -
20/01:00am 17.1 E 5 7 1024.8 - 1.4 - - - - - - -
20/12:30am 17.0 ENE 4 6 1025.0 - 1.4 - - - - - - -
20/12:00am 17.4 E 5 7 1025.2 - 1.4 - - - - - - -
 
Date/Time
EDT
Temp
°C
Wind Pressure Rain since
9am
mm
Weather Cloud Vis
km
Sea
Height
m
Swell
Dir  Spd
kts
Gust
kts
hPa Trend Height
m
Period
s
Dir
19/11:30pm 17.3 E 5 7 1025.4 - 1.4 - - - - - - -
19/11:00pm 17.5 ESE 5 7 1025.6 - 1.4 - - - - - - -
19/10:30pm 17.6 E 5 7 1025.7 - 1.4 - - - - - - -
19/10:00pm 17.8 E 5 8 1025.7 - 1.4 - - - - - - -
19/09:30pm 17.9 E 6 10 1025.7 - 1.4 - - - - - - -
19/09:00pm 17.8 E 5 7 1025.5 - 1.4 - - - - - - -
19/08:30pm 18.0 E 5 7 1025.0 - 1.4 - - - - - - -
19/08:00pm 18.0 E 5 8 1024.8 - 1.4 - - - - - - -
19/07:30pm 18.0 E 5 7 1024.5 - 1.4 - - - - - - -
19/07:00pm 18.3 ENE 6 10 1024.2 - 1.4 - - - - - - -
19/06:30pm 18.7 ENE 8 11 1023.9 - 1.4 - - - - - - -
19/06:00pm 19.8 ENE 8 10 1023.7 - 1.4 - - - - - - -
19/05:30pm 19.4 ENE 8 11 1023.6 - 1.4 - - - - - - -
19/05:00pm 20.2 ENE 8 11 1023.5 - 1.4 - - - - - - -
19/04:30pm 20.2 ENE 8 11 1023.6 - 1.4 - - - - - - -
19/04:00pm 21.8 NE 9 14 1023.7 - 1.4 - - - - - - -
19/03:30pm 20.7 ENE 8 13 1023.7 - 1.4 - - - - - - -
19/03:00pm 21.3 NE 9 12 1023.9 - 1.4 - - - - - - -
19/02:30pm 20.7 ENE 7 12 1024.2 - 1.4 - - - - - - -
19/02:00pm 20.7 ENE 8 11 1024.2 - 1.4 - - - - - - -
19/01:30pm 21.4 E 7 11 1024.3 - 1.4 - - - - - - -
19/01:00pm 21.3 ENE 8 12 1024.4 - 1.4 - - - - - - -
19/12:30pm 21.6 NE 8 12 1024.4 - 1.4 - - - - - - -
19/12:00pm 21.0 NE 9 13 1024.4 - 1.4 - - - - - - -
19/11:30am 19.1 NE 5 11 1024.7 - 1.4 - - - - - - -
19/11:00am 17.4 SE 4 6 1024.7 - 1.4 - - - - - - -
19/10:30am 18.0 SSE 5 8 1024.6 - 0.0 - - - - - - -
19/10:00am 18.7 S 6 9 1024.4 - 0.0 - - - - - - -
19/09:30am 19.4 S 5 9 1024.4 - 0.0 - - - - - - -
19/09:00am 19.0 S 3 6 1024.5 - 0.0 - - - - - - -
19/08:30am 18.4 SSW 5 6 1024.6 - 0.0 - - - - - - -

Other Formats:

Comma delimited format used in spreadsheet applications
http://www.bom.gov.au/fwo/IDN60701/IDN60701.95940.axf

JavaScript Object Notation format (JSON) in row-major order
http://www.bom.gov.au/fwo/IDN60701/IDN60701.95940.json